Irini — SYZA — position and weather

sailwx.info

Track history (hours):
 
Tides and Currents Weather Stations Pressure Air Temp Water Temp Dewpoint Dewpoint Depression Visibility Wind Speed Wind Dir Waves Ship Positions

Irini

Last reported at 2017-Jan-14 21:22 UTC. Time now 2017-Jan-17 21:26 UTC.
Position N 37°49' E 024°25'.

Length 137 m; draft 7.4 m.

Type: Ship (hazmat cat A). MMSI: 240052000.

Date/timePositionNaut miles runAvg speedWind from/ knotsBaromVisibWave heightAir tempDewpointWater temp
2017-Jan-14 21:22N 37°49' E 024°25'2010.8
2017-Jan-14 19:32N 37°36' E 024°05'1111.0
2017-Jan-14 18:33N 37°37' E 023°52'1010.4
2017-Jan-14 17:33N 37°43' E 023°41'1111.4
2017-Jan-14 16:33N 37°54' E 023°37'7 6.9
2017-Jan-14 15:34N 37°60' E 023°33'2 2.5
2017-Jan-14 14:33N 38°02' E 023°31'0 0.4
2017-Jan-14 13:29N 38°02' E 023°31'0 0.0
2017-Jan-14 12:32N 38°02' E 023°31'0 0.0
2017-Jan-14 11:32N 38°02' E 023°31'0 0.0
2017-Jan-14 10:32N 38°02' E 023°31'0 0.0
2017-Jan-14 09:29N 38°02' E 023°31'0 0.0
2017-Jan-14 08:32N 38°02' E 023°31'0 0.0
2017-Jan-14 07:32N 38°02' E 023°31'0 0.0
2017-Jan-14 06:32N 38°02' E 023°31'0 0.0
2017-Jan-14 05:26N 38°02' E 023°31'0 0.0
2017-Jan-14 04:32N 38°02' E 023°31'0 0.0
2017-Jan-14 03:32N 38°02' E 023°31'0 0.0
2017-Jan-13 23:32N 38°02' E 023°31'0 0.0
2017-Jan-13 22:32N 38°02' E 023°31'0 0.0
2017-Jan-13 21:32N 38°02' E 023°31'0 0.0
2017-Jan-13 20:32N 38°02' E 023°31'0 0.0
2017-Jan-13 19:29N 38°02' E 023°31'0 0.0
2017-Jan-13 18:32N 38°02' E 023°31'0 0.0
2017-Jan-13 17:32N 38°02' E 023°31'0 0.0
2017-Jan-13 16:32N 38°02' E 023°31'0 0.0
2017-Jan-13 15:30N 38°02' E 023°31'1 0.7
2017-Jan-13 14:33N 38°02' E 023°31'0 0.1
2017-Jan-13 13:33N 38°02' E 023°31'0 0.0
2017-Jan-13 12:33N 38°02' E 023°31'0 0.0
2017-Jan-13 11:33N 38°02' E 023°31'0 0.0
2017-Jan-13 10:33N 38°02' E 023°31'0 0.0
2017-Jan-13 09:33N 38°02' E 023°31'0 0.0
2017-Jan-13 08:33N 38°02' E 023°31'0 0.0
2017-Jan-13 07:33N 38°02' E 023°31'0 0.0
2017-Jan-13 06:33N 38°02' E 023°31'0 0.0
2017-Jan-13 05:33N 38°02' E 023°31'0 0.0
2017-Jan-13 04:33N 38°02' E 023°31'0 0.0
2017-Jan-13 03:33N 38°02' E 023°31'0 0.0
2017-Jan-13 02:33N 38°02' E 023°31'0 0.0
2017-Jan-13 01:33N 38°02' E 023°31'0 0.0
2017-Jan-13 00:33N 38°02' E 023°31'0 0.0
2017-Jan-12 23:33N 38°02' E 023°31'0 0.0
2017-Jan-12 22:33N 38°02' E 023°31'0 0.0
2017-Jan-12 21:33N 38°02' E 023°31'0 0.0
2017-Jan-12 20:33N 38°02' E 023°31'0 0.0
2017-Jan-12 19:33N 38°02' E 023°31'0 0.0
2017-Jan-12 18:33N 38°02' E 023°31'2 2.1
2017-Jan-12 17:33N 37°60' E 023°33'6 5.9
2017-Jan-12 16:33N 37°55' E 023°37'1 1.0
2017-Jan-12 15:33N 37°55' E 023°36'2 1.6
2017-Jan-12 14:33N 37°53' E 023°36'2 1.7
2017-Jan-12 13:33N 37°52' E 023°35'0 0.3
2017-Jan-12 12:33N 37°52' E 023°35'0 0.5
2017-Jan-12 11:33N 37°52' E 023°36'1 0.5
2017-Jan-12 10:33N 37°51' E 023°36'5 5.4
2017-Jan-12 09:33N 37°47' E 023°41'10 9.8
2017-Jan-12 08:33N 37°40' E 023°49'1110.4
2017-Jan-12 07:32N 37°36' E 024°02'1410.7
2017-Jan-12 06:14N 37°43' E 024°17'37 9.9
2017-Jan-12 02:30N 38°18' E 024°33'  
Track history (hours):
 
Tides and Currents Weather Stations Pressure Air Temp Water Temp Dewpoint Dewpoint Depression Visibility Wind Speed Wind Dir Waves Ship Positions

Irini

Last reported at 2017-Jan-14 21:22 UTC. Time now 2017-Jan-17 21:26 UTC.
Position N 37°49' E 024°25'.

Length 137 m; draft 7.4 m.

Type: Ship (hazmat cat A). MMSI: 240052000.

Date/timePositionNaut miles runAvg speedWind from/ knotsBaromVisibWave heightAir tempDewpointWater temp
2017-Jan-14 21:22N 37°49' E 024°25'2010.8
2017-Jan-14 19:32N 37°36' E 024°05'1111.0
2017-Jan-14 18:33N 37°37' E 023°52'1010.4
2017-Jan-14 17:33N 37°43' E 023°41'1111.4
2017-Jan-14 16:33N 37°54' E 023°37'7 6.9
2017-Jan-14 15:34N 37°60' E 023°33'2 2.5
2017-Jan-14 14:33N 38°02' E 023°31'0 0.4
2017-Jan-14 13:29N 38°02' E 023°31'0 0.0
2017-Jan-14 12:32N 38°02' E 023°31'0 0.0
2017-Jan-14 11:32N 38°02' E 023°31'0 0.0
2017-Jan-14 10:32N 38°02' E 023°31'0 0.0
2017-Jan-14 09:29N 38°02' E 023°31'0 0.0
2017-Jan-14 08:32N 38°02' E 023°31'0 0.0
2017-Jan-14 07:32N 38°02' E 023°31'0 0.0
2017-Jan-14 06:32N 38°02' E 023°31'0 0.0
2017-Jan-14 05:26N 38°02' E 023°31'0 0.0
2017-Jan-14 04:32N 38°02' E 023°31'0 0.0
2017-Jan-14 03:32N 38°02' E 023°31'0 0.0
2017-Jan-13 23:32N 38°02' E 023°31'0 0.0
2017-Jan-13 22:32N 38°02' E 023°31'0 0.0
2017-Jan-13 21:32N 38°02' E 023°31'0 0.0
2017-Jan-13 20:32N 38°02' E 023°31'0 0.0
2017-Jan-13 19:29N 38°02' E 023°31'0 0.0
2017-Jan-13 18:32N 38°02' E 023°31'0 0.0
2017-Jan-13 17:32N 38°02' E 023°31'0 0.0
2017-Jan-13 16:32N 38°02' E 023°31'0 0.0
2017-Jan-13 15:30N 38°02' E 023°31'1 0.7
2017-Jan-13 14:33N 38°02' E 023°31'0 0.1
2017-Jan-13 13:33N 38°02' E 023°31'0 0.0
2017-Jan-13 12:33N 38°02' E 023°31'0 0.0
2017-Jan-13 11:33N 38°02' E 023°31'0 0.0
2017-Jan-13 10:33N 38°02' E 023°31'0 0.0
2017-Jan-13 09:33N 38°02' E 023°31'0 0.0
2017-Jan-13 08:33N 38°02' E 023°31'0 0.0
2017-Jan-13 07:33N 38°02' E 023°31'0 0.0
2017-Jan-13 06:33N 38°02' E 023°31'0 0.0
2017-Jan-13 05:33N 38°02' E 023°31'0 0.0
2017-Jan-13 04:33N 38°02' E 023°31'0 0.0
2017-Jan-13 03:33N 38°02' E 023°31'0 0.0
2017-Jan-13 02:33N 38°02' E 023°31'0 0.0
2017-Jan-13 01:33N 38°02' E 023°31'0 0.0
2017-Jan-13 00:33N 38°02' E 023°31'0 0.0
2017-Jan-12 23:33N 38°02' E 023°31'0 0.0
2017-Jan-12 22:33N 38°02' E 023°31'0 0.0
2017-Jan-12 21:33N 38°02' E 023°31'0 0.0
2017-Jan-12 20:33N 38°02' E 023°31'0 0.0
2017-Jan-12 19:33N 38°02' E 023°31'0 0.0
2017-Jan-12 18:33N 38°02' E 023°31'2 2.1
2017-Jan-12 17:33N 37°60' E 023°33'6 5.9
2017-Jan-12 16:33N 37°55' E 023°37'1 1.0
2017-Jan-12 15:33N 37°55' E 023°36'2 1.6
2017-Jan-12 14:33N 37°53' E 023°36'2 1.7
2017-Jan-12 13:33N 37°52' E 023°35'0 0.3
2017-Jan-12 12:33N 37°52' E 023°35'0 0.5
2017-Jan-12 11:33N 37°52' E 023°36'1 0.5
2017-Jan-12 10:33N 37°51' E 023°36'5 5.4
2017-Jan-12 09:33N 37°47' E 023°41'10 9.8
2017-Jan-12 08:33N 37°40' E 023°49'1110.4
2017-Jan-12 07:32N 37°36' E 024°02'1410.7
2017-Jan-12 06:14N 37°43' E 024°17'37 9.9
2017-Jan-12 02:30N 38°18' E 024°33'  

Dump ship's entire track history